createdAt,value
2018-03-26T00:00:29.399Z,17.57
2018-03-26T00:02:57.440Z,17.97
2018-03-26T00:05:25.496Z,18.43
2018-03-26T00:07:54.292Z,17.97
2018-03-26T00:10:23.099Z,17.83
2018-03-26T00:12:51.919Z,16.67
2018-03-26T00:15:20.010Z,18.03
2018-03-26T00:17:48.043Z,19.13
2018-03-26T00:20:16.108Z,16.87
2018-03-26T00:22:44.134Z,17.77
2018-03-26T00:25:12.929Z,17.77
2018-03-26T00:27:40.989Z,17.80
2018-03-26T00:30:09.136Z,17.73
2018-03-26T00:32:37.172Z,17.43
2018-03-26T00:35:05.223Z,16.40
2018-03-26T00:37:33.279Z,17.13
2018-03-26T00:40:01.373Z,18.00
2018-03-26T00:42:29.435Z,17.87
2018-03-26T00:44:58.255Z,17.70
2018-03-26T00:47:26.308Z,16.50
2018-03-26T00:49:54.616Z,16.80
2018-03-26T00:52:23.419Z,17.20
2018-03-26T00:54:51.487Z,16.97
2018-03-26T00:57:20.292Z,16.57
2018-03-26T00:59:48.340Z,17.10
2018-03-26T01:02:16.382Z,17.10
2018-03-26T01:04:44.448Z,18.47
2018-03-26T01:07:13.253Z,18.17
2018-03-26T01:09:42.063Z,19.23
2018-03-26T01:12:10.889Z,18.07
2018-03-26T01:14:38.924Z,17.93
2018-03-26T01:17:06.993Z,17.67
2018-03-26T01:19:35.053Z,17.77
2018-03-26T01:22:03.097Z,19.00
2018-03-26T01:24:31.916Z,19.13
2018-03-26T01:26:59.973Z,18.33
2018-03-26T01:29:28.013Z,17.50
2018-03-26T01:31:56.485Z,18.20
2018-03-26T01:34:24.527Z,18.43
2018-03-26T01:36:52.584Z,17.77
2018-03-26T01:39:20.625Z,16.80
2018-03-26T01:41:48.664Z,16.13
2018-03-26T01:44:16.720Z,17.33
2018-03-26T01:46:44.759Z,18.13
2018-03-26T01:49:13.579Z,17.10
2018-03-26T01:51:41.619Z,17.30
2018-03-26T01:54:09.669Z,17.63
2018-03-26T01:56:37.731Z,18.17
2018-03-26T01:59:05.863Z,18.17
2018-03-26T02:01:34.616Z,19.20
2018-03-26T02:04:02.660Z,19.23
2018-03-26T02:06:30.716Z,19.53
2018-03-26T02:08:58.755Z,18.40
2018-03-26T02:11:27.564Z,18.60
2018-03-26T02:13:56.389Z,17.97
2018-03-26T02:16:24.724Z,17.47
2018-03-26T02:18:52.776Z,18.07
2018-03-26T02:21:20.808Z,18.20
2018-03-26T02:23:49.648Z,18.97
2018-03-26T02:26:17.725Z,19.00
2018-03-26T02:28:45.778Z,17.87
2018-03-26T02:31:13.830Z,18.27
2018-03-26T02:33:41.882Z,17.43
2018-03-26T02:36:09.961Z,17.90
2018-03-26T02:38:38.021Z,16.30
2018-03-26T02:41:06.846Z,17.20
2018-03-26T02:43:34.886Z,16.73
2018-03-26T02:46:02.936Z,17.07
2018-03-26T02:48:30.998Z,17.77
2018-03-26T02:50:59.042Z,16.97
2018-03-26T02:53:27.090Z,16.33
2018-03-26T02:55:55.141Z,16.40
2018-03-26T02:58:24.189Z,16.63
2018-03-26T03:00:52.237Z,17.03
2018-03-26T03:03:21.046Z,16.30
2018-03-26T03:05:49.105Z,16.10
2018-03-26T03:08:17.918Z,16.23
2018-03-26T03:10:46.733Z,16.53
2018-03-26T03:13:14.768Z,18.97
2018-03-26T03:15:42.832Z,20.13
2018-03-26T03:18:10.889Z,20.93
2018-03-26T03:20:38.954Z,19.50
2018-03-26T03:23:07.773Z,18.93
2018-03-26T03:25:35.861Z,18.13
2018-03-26T03:28:03.906Z,18.20
2018-03-26T03:30:31.952Z,18.60
2018-03-26T03:33:00.010Z,19.57
2018-03-26T03:35:28.065Z,20.13
2018-03-26T03:37:56.884Z,20.63
2018-03-26T03:40:26.497Z,20.33
2018-03-26T03:42:55.421Z,19.90
2018-03-26T03:45:23.517Z,18.90
2018-03-26T03:47:51.568Z,19.13
2018-03-26T03:50:19.625Z,19.33
2018-03-26T03:52:47.666Z,18.50
2018-03-26T03:55:15.730Z,18.87
2018-03-26T03:57:44.528Z,20.00
2018-03-26T04:00:13.361Z,19.33
2018-03-26T04:02:41.389Z,19.60
2018-03-26T04:05:09.452Z,20.20
2018-03-26T04:07:37.489Z,21.17
2018-03-26T04:10:06.297Z,20.97
2018-03-26T04:12:35.117Z,22.20
2018-03-26T04:15:03.174Z,21.77
2018-03-26T04:17:31.217Z,20.33
2018-03-26T04:19:59.252Z,22.47
2018-03-26T04:22:28.077Z,22.67
2018-03-26T04:24:56.113Z,22.47
2018-03-26T04:27:24.932Z,23.57
2018-03-26T04:29:53.734Z,22.80
2018-03-26T04:32:22.555Z,23.93
2018-03-26T04:34:50.641Z,22.30
2018-03-26T04:37:18.698Z,23.90
2018-03-26T04:39:47.504Z,25.20
2018-03-26T04:42:16.337Z,25.57
2018-03-26T04:44:44.379Z,25.70
2018-03-26T04:47:12.420Z,25.67
2018-03-26T04:49:40.464Z,24.77
2018-03-26T04:52:09.289Z,25.37
2018-03-26T04:54:37.333Z,25.70
2018-03-26T04:57:05.449Z,26.20
2018-03-26T04:59:33.437Z,26.43
2018-03-26T05:02:01.493Z,26.57
2018-03-26T05:04:29.524Z,26.80
2018-03-26T05:06:57.585Z,26.80
2018-03-26T05:09:25.616Z,26.23
2018-03-26T05:11:53.673Z,25.80
2018-03-26T05:14:21.744Z,26.33
2018-03-26T05:16:50.598Z,27.90
2018-03-26T05:19:18.633Z,26.60
2018-03-26T05:21:46.672Z,26.67
2018-03-26T05:24:14.797Z,28.00
2018-03-26T05:26:42.845Z,26.70
2018-03-26T05:29:10.967Z,29.33
2018-03-26T05:31:39.016Z,38.53
2018-03-26T05:34:07.056Z,45.70
2018-03-26T05:36:35.113Z,43.63
2018-03-26T05:39:03.148Z,42.57
2018-03-26T05:41:31.208Z,44.87
2018-03-26T05:43:59.257Z,42.20
2018-03-26T05:46:27.977Z,36.93
2018-03-26T05:48:56.025Z,31.13
2018-03-26T05:51:24.834Z,30.00
2018-03-26T05:53:53.636Z,29.40
2018-03-26T05:56:22.453Z,30.33
2018-03-26T05:58:50.499Z,28.57
2018-03-26T06:01:18.629Z,28.90
2018-03-26T06:03:46.681Z,28.53
2018-03-26T06:06:14.724Z,28.90
2018-03-26T06:08:42.781Z,27.73
2018-03-26T06:11:10.893Z,27.87
2018-03-26T06:13:38.950Z,28.17
2018-03-26T06:16:07.004Z,26.93
2018-03-26T06:18:35.815Z,25.70
2018-03-26T06:21:04.621Z,27.30
2018-03-26T06:23:33.457Z,26.27
2018-03-26T06:26:01.497Z,25.37
2018-03-26T06:28:29.812Z,25.67
2018-03-26T06:30:57.872Z,28.30
2018-03-26T06:33:26.764Z,26.33
2018-03-26T06:35:54.812Z,26.47
2018-03-26T06:38:24.700Z,27.40
2018-03-26T06:40:53.505Z,27.30
2018-03-26T06:43:22.324Z,26.90
2018-03-26T06:45:50.376Z,26.60
2018-03-26T06:48:18.492Z,27.77
2018-03-26T06:50:46.535Z,29.10
2018-03-26T06:53:15.354Z,28.57
2018-03-26T06:55:44.165Z,27.80
2018-03-26T06:58:12.221Z,26.17
2018-03-26T07:00:41.024Z,29.17
2018-03-26T07:03:09.084Z,27.67
2018-03-26T07:05:37.152Z,27.90
2018-03-26T07:08:05.193Z,28.63
2018-03-26T07:10:34.001Z,28.43
2018-03-26T07:13:02.920Z,29.00
2018-03-26T07:15:30.965Z,28.93
2018-03-26T07:17:59.021Z,29.00
2018-03-26T07:20:27.061Z,29.47
2018-03-26T07:22:55.878Z,30.93
2018-03-26T07:25:23.916Z,31.70
2018-03-26T07:27:52.049Z,38.97
2018-03-26T07:30:20.088Z,39.10
2018-03-26T07:32:48.923Z,43.20
2018-03-26T07:35:16.964Z,38.73
2018-03-26T07:37:45.013Z,36.70
2018-03-26T07:40:13.074Z,35.47
2018-03-26T07:42:41.891Z,34.50
2018-03-26T07:45:09.948Z,34.33
2018-03-26T07:47:38.753Z,34.67
2018-03-26T07:50:07.678Z,34.47
2018-03-26T07:52:35.716Z,34.37
2018-03-26T07:55:03.760Z,34.43
2018-03-26T07:57:31.824Z,34.60
2018-03-26T07:59:59.868Z,35.10
2018-03-26T08:02:27.913Z,35.93
2018-03-26T08:04:55.972Z,34.53
2018-03-26T08:07:24.008Z,34.40
2018-03-26T08:09:52.154Z,37.53
2018-03-26T08:12:20.237Z,34.97
2018-03-26T08:14:48.284Z,34.77
2018-03-26T08:17:16.459Z,35.97
2018-03-26T08:19:44.469Z,35.63
2018-03-26T08:22:13.276Z,34.40
2018-03-26T08:24:42.096Z,35.97
2018-03-26T08:27:10.156Z,33.80
2018-03-26T08:29:38.965Z,36.17
2018-03-26T08:32:07.790Z,35.93
2018-03-26T08:34:35.828Z,38.10
2018-03-26T08:37:03.884Z,36.63
2018-03-26T08:39:31.923Z,36.53
2018-03-26T08:42:00.736Z,37.03
2018-03-26T08:44:28.778Z,36.93
2018-03-26T08:46:58.336Z,36.83
2018-03-26T08:49:26.444Z,37.07
2018-03-26T08:51:54.505Z,37.33
2018-03-26T08:54:22.629Z,36.47
2018-03-26T08:56:50.656Z,38.03
2018-03-26T08:59:19.507Z,36.87
2018-03-26T09:01:48.278Z,36.60
2018-03-26T09:04:16.332Z,36.77
2018-03-26T09:06:44.389Z,37.60
2018-03-26T09:09:12.453Z,38.10
2018-03-26T09:11:40.493Z,35.83
2018-03-26T09:14:08.585Z,36.03
2018-03-26T09:16:36.588Z,35.83
2018-03-26T09:19:04.624Z,37.43
2018-03-26T09:21:32.689Z,36.93
2018-03-26T09:24:00.730Z,37.70
2018-03-26T09:26:29.532Z,36.70
2018-03-26T09:28:57.587Z,36.93
2018-03-26T09:31:25.628Z,35.97
2018-03-26T09:33:53.681Z,35.90
2018-03-26T09:36:22.489Z,39.33
2018-03-26T09:38:50.561Z,37.37
2018-03-26T09:41:18.580Z,37.43
2018-03-26T09:43:46.632Z,36.07
2018-03-26T09:46:15.441Z,36.23
2018-03-26T09:48:44.257Z,36.80
2018-03-26T09:51:12.296Z,36.50
2018-03-26T09:53:40.349Z,35.47
2018-03-26T09:56:08.392Z,35.47
2018-03-26T09:58:37.196Z,36.23
2018-03-26T10:01:11.501Z,36.37
2018-03-26T10:03:39.537Z,36.63
2018-03-26T10:06:07.598Z,35.17
2018-03-26T10:08:36.401Z,34.77
2018-03-26T10:11:04.466Z,34.60
2018-03-26T10:13:33.281Z,33.93
2018-03-26T10:16:02.072Z,34.23
2018-03-26T10:18:30.896Z,34.53
2018-03-26T10:20:58.937Z,34.07
2018-03-26T10:23:27.791Z,33.27
2018-03-26T10:25:55.836Z,34.27
2018-03-26T10:28:24.765Z,33.27
2018-03-26T10:30:52.809Z,34.30
2018-03-26T10:33:20.877Z,33.50
2018-03-26T10:35:48.912Z,32.53
2018-03-26T10:38:17.837Z,35.40
2018-03-26T10:40:45.876Z,33.90
2018-03-26T10:43:14.004Z,35.20
2018-03-26T10:45:42.060Z,35.73
2018-03-26T10:48:10.885Z,35.23
2018-03-26T10:50:38.923Z,36.07
2018-03-26T10:53:06.980Z,35.37
2018-03-26T10:55:35.013Z,35.87
2018-03-26T10:58:03.837Z,34.00
2018-03-26T11:00:31.886Z,34.70
2018-03-26T11:02:59.916Z,33.43
2018-03-26T11:05:27.981Z,34.90
2018-03-26T11:07:56.026Z,33.77
2018-03-26T11:10:24.073Z,33.17
2018-03-26T11:12:52.133Z,31.60
2018-03-26T11:17:55.576Z,33.63
2018-03-26T11:20:23.669Z,31.90
2018-03-26T11:22:52.452Z,32.77
2018-03-26T11:25:21.286Z,32.33
2018-03-26T11:27:49.491Z,31.40
2018-03-26T11:30:17.560Z,31.70
2018-03-26T11:32:45.601Z,31.77
2018-03-26T11:35:14.427Z,31.97
2018-03-26T11:37:42.477Z,34.13
2018-03-26T11:40:10.536Z,33.47
2018-03-26T11:42:38.581Z,33.00
2018-03-26T11:45:06.641Z,34.23
2018-03-26T11:47:34.720Z,33.93
2018-03-26T11:50:03.534Z,33.57
2018-03-26T11:52:32.339Z,33.13
2018-03-26T11:55:01.164Z,34.17
2018-03-26T11:57:29.218Z,33.57
2018-03-26T11:59:58.040Z,32.33
2018-03-26T12:02:26.112Z,32.47
2018-03-26T12:04:54.939Z,32.53
2018-03-26T12:07:22.980Z,32.17
2018-03-26T12:09:51.049Z,33.07
2018-03-26T12:12:19.096Z,31.90
2018-03-26T12:14:47.147Z,32.00
2018-03-26T12:17:16.004Z,31.70
2018-03-26T12:20:02.125Z,31.70
2018-03-26T12:22:30.164Z,31.87
2018-03-26T12:25:10.600Z,31.77
2018-03-26T12:27:56.457Z,31.80
2018-03-26T12:30:27.153Z,32.57
2018-03-26T12:32:55.964Z,31.27
2018-03-26T12:35:42.541Z,31.07
2018-03-26T12:38:10.701Z,31.27
2018-03-26T12:40:54.007Z,32.57
2018-03-26T12:43:22.050Z,31.87
2018-03-26T12:49:04.492Z,30.17
2018-03-26T12:51:50.541Z,30.03
2018-03-26T12:54:18.682Z,30.83
2018-03-26T12:56:46.803Z,31.73
2018-03-26T12:59:14.884Z,31.57
2018-03-26T13:02:00.562Z,30.90
2018-03-26T13:04:29.005Z,29.93
2018-03-26T13:06:58.175Z,28.83
2018-03-26T13:09:26.408Z,30.20
2018-03-26T13:11:55.510Z,32.07
2018-03-26T13:14:23.638Z,30.67
2018-03-26T13:16:51.755Z,31.30
2018-03-26T13:19:19.781Z,31.73
2018-03-26T13:21:48.618Z,31.03
2018-03-26T13:24:16.669Z,31.80
2018-03-26T13:26:45.496Z,31.77
2018-03-26T13:29:13.542Z,30.83
2018-03-26T13:31:41.601Z,31.00
2018-03-26T13:34:09.665Z,32.43
2018-03-26T13:36:38.161Z,31.87
2018-03-26T13:39:07.059Z,30.93
2018-03-26T13:41:35.121Z,31.63
2018-03-26T13:44:03.952Z,31.70
2018-03-26T13:46:32.021Z,30.67
2018-03-26T13:49:00.115Z,32.77
2018-03-26T13:51:28.165Z,31.90
2018-03-26T13:53:56.997Z,30.90
2018-03-26T13:56:25.056Z,32.17
2018-03-26T13:58:53.878Z,30.10
2018-03-26T14:01:22.077Z,30.10
2018-03-26T14:03:50.125Z,30.23
2018-03-26T14:06:18.950Z,28.53
2018-03-26T14:09:04.706Z,24.07
2018-03-26T14:11:50.629Z,24.27
2018-03-26T14:14:37.835Z,25.87
2018-03-26T14:17:23.741Z,25.03
2018-03-26T14:19:51.801Z,23.83
2018-03-26T14:22:19.856Z,21.97
2018-03-26T14:24:47.926Z,20.17
2018-03-26T14:27:16.740Z,17.83
2018-03-26T14:29:45.569Z,20.03
2018-03-26T14:32:13.643Z,20.67
2018-03-26T14:37:37.969Z,22.13
2018-03-26T14:40:06.045Z,22.80
2018-03-26T14:42:34.857Z,21.67
2018-03-26T14:45:02.927Z,23.10
2018-03-26T14:47:31.736Z,23.57
2018-03-26T14:49:59.800Z,23.33
2018-03-26T14:52:28.609Z,21.63
2018-03-26T14:54:57.447Z,21.83
2018-03-26T14:57:25.513Z,22.60
2018-03-26T14:59:53.583Z,25.43
2018-03-26T15:02:22.404Z,24.47
2018-03-26T15:04:50.460Z,24.03
2018-03-26T15:07:19.278Z,24.43
2018-03-26T15:09:48.124Z,24.37
2018-03-26T15:12:16.177Z,24.83
2018-03-26T15:14:44.290Z,24.03
2018-03-26T15:17:12.355Z,25.23
2018-03-26T15:19:40.401Z,25.13
2018-03-26T15:22:09.241Z,26.20
2018-03-26T15:24:37.292Z,24.93
2018-03-26T15:27:06.144Z,25.10
2018-03-26T15:29:34.199Z,24.03
2018-03-26T15:32:02.260Z,25.00
2018-03-26T15:34:30.389Z,24.17
2018-03-26T15:36:58.443Z,25.83
2018-03-26T15:39:27.269Z,26.30
2018-03-26T15:41:55.324Z,25.30
2018-03-26T15:44:24.166Z,27.47
2018-03-26T15:46:52.224Z,25.60
2018-03-26T15:49:21.049Z,26.83
2018-03-26T15:51:49.113Z,26.13
2018-03-26T15:54:17.173Z,25.77
2018-03-26T15:56:46.000Z,27.37
2018-03-26T15:59:14.074Z,25.83
2018-03-26T16:01:42.886Z,26.47
2018-03-26T16:04:11.732Z,27.07
2018-03-26T16:06:39.924Z,25.57
2018-03-26T16:09:07.989Z,26.83
2018-03-26T16:11:36.037Z,26.60
2018-03-26T16:14:04.848Z,26.73
2018-03-26T16:16:32.920Z,27.43
2018-03-26T16:19:01.741Z,27.47
2018-03-26T16:21:29.788Z,25.97
2018-03-26T16:23:57.857Z,27.17
2018-03-26T16:26:25.901Z,27.77
2018-03-26T16:28:53.953Z,27.53
2018-03-26T16:31:22.781Z,27.07
2018-03-26T16:33:50.845Z,27.17
2018-03-26T16:36:19.665Z,27.70
2018-03-26T16:38:47.728Z,26.70
2018-03-26T16:41:34.469Z,28.13
2018-03-26T16:44:02.549Z,26.33
2018-03-26T16:46:31.365Z,27.17
2018-03-26T16:48:59.444Z,27.27
2018-03-26T16:51:28.261Z,25.83
2018-03-26T16:53:56.310Z,26.57
2018-03-26T16:56:25.461Z,26.60
2018-03-26T16:58:53.598Z,25.97
2018-03-26T17:01:21.952Z,25.70
2018-03-26T17:03:50.052Z,25.20
2018-03-26T17:06:18.468Z,25.10
2018-03-26T17:08:46.578Z,27.07
2018-03-26T17:11:14.825Z,26.73
2018-03-26T17:13:43.120Z,27.67
2018-03-26T17:16:11.694Z,27.57
2018-03-26T17:18:39.761Z,27.97
2018-03-26T17:21:07.830Z,27.47
2018-03-26T17:23:36.158Z,27.47
2018-03-26T17:26:04.228Z,27.17
2018-03-26T17:28:32.421Z,26.93
2018-03-26T17:31:00.525Z,28.73
2018-03-26T17:33:29.305Z,27.73
2018-03-26T17:35:58.216Z,27.50
2018-03-26T17:38:26.412Z,27.67
2018-03-26T17:40:54.832Z,28.13
2018-03-26T17:43:23.955Z,28.50
2018-03-26T17:45:53.343Z,27.90
2018-03-26T17:48:22.752Z,27.83
2018-03-26T17:50:51.042Z,28.23
2018-03-26T17:53:19.334Z,27.23
2018-03-26T17:55:47.666Z,27.17
2018-03-26T17:58:17.811Z,27.10
2018-03-26T18:00:46.187Z,25.23
2018-03-26T18:03:15.395Z,26.43
2018-03-26T18:05:43.590Z,26.07
2018-03-26T18:08:12.269Z,27.13
2018-03-26T18:10:41.225Z,26.70
2018-03-26T18:13:11.331Z,27.47
2018-03-26T18:15:39.567Z,27.37
2018-03-26T18:18:08.106Z,27.53
2018-03-26T18:20:36.595Z,26.67
2018-03-26T18:23:05.050Z,28.20
2018-03-26T18:25:34.151Z,27.47
2018-03-26T18:28:02.525Z,29.93
2018-03-26T18:30:30.701Z,30.67
2018-03-26T18:32:59.765Z,27.57
2018-03-26T18:35:28.192Z,28.13
2018-03-26T18:37:57.710Z,29.40
2018-03-26T18:40:26.287Z,29.97
2018-03-26T18:42:55.186Z,28.70
2018-03-26T18:45:24.094Z,30.33
2018-03-26T18:47:52.723Z,30.27
2018-03-26T18:50:20.865Z,29.30
2018-03-26T18:52:49.020Z,29.43
2018-03-26T18:55:17.058Z,30.97
2018-03-26T18:57:45.865Z,29.73
2018-03-26T19:00:14.686Z,32.67
2018-03-26T19:02:43.205Z,34.73
2018-03-26T19:05:11.265Z,34.33
2018-03-26T19:07:39.315Z,34.07
2018-03-26T19:10:09.880Z,32.23
2018-03-26T19:12:38.033Z,35.13
2018-03-26T19:15:06.089Z,36.93
2018-03-26T19:17:34.262Z,35.40
2018-03-26T19:20:02.472Z,33.60
2018-03-26T19:22:30.544Z,34.03
2018-03-26T19:24:58.604Z,33.27
2018-03-26T19:27:26.707Z,35.23
2018-03-26T19:29:54.768Z,35.03
2018-03-26T19:32:23.585Z,35.30
2018-03-26T19:34:51.675Z,34.17
2018-03-26T19:37:19.719Z,34.93
2018-03-26T19:39:48.548Z,34.50
2018-03-26T19:42:16.732Z,35.20
2018-03-26T19:44:45.389Z,35.03
2018-03-26T19:47:13.454Z,36.03
2018-03-26T19:49:41.535Z,34.83
2018-03-26T19:52:09.767Z,33.73
2018-03-26T19:54:37.804Z,33.30
2018-03-26T19:57:05.912Z,34.27
2018-03-26T19:59:34.019Z,35.43
2018-03-26T20:02:02.060Z,31.33
2018-03-26T20:04:30.100Z,30.93
2018-03-26T20:06:58.929Z,30.23
2018-03-26T20:09:26.988Z,28.03
2018-03-26T20:11:55.856Z,28.60
2018-03-26T20:14:23.917Z,28.53
2018-03-26T20:16:51.957Z,27.07
2018-03-26T20:19:20.782Z,29.20
2018-03-26T20:21:48.813Z,28.23
2018-03-26T20:24:16.873Z,28.40
2018-03-26T20:26:45.374Z,28.93
2018-03-26T20:29:13.430Z,29.13
2018-03-26T20:31:41.526Z,27.67
2018-03-26T20:34:09.570Z,29.50
2018-03-26T20:36:38.377Z,29.73
2018-03-26T20:39:07.476Z,29.07
2018-03-26T20:41:35.523Z,28.23
2018-03-26T20:44:03.577Z,27.57
2018-03-26T20:46:31.607Z,26.60
2018-03-26T20:48:59.664Z,27.60
2018-03-26T20:51:27.712Z,27.50
2018-03-26T20:53:56.533Z,26.00
2018-03-26T20:56:24.616Z,27.33
2018-03-26T20:58:52.655Z,27.10
2018-03-26T21:01:20.724Z,26.70
2018-03-26T21:03:48.765Z,27.23
2018-03-26T21:06:16.866Z,27.03
2018-03-26T21:08:45.032Z,28.43
2018-03-26T21:11:13.837Z,28.90
2018-03-26T21:13:41.876Z,29.33
2018-03-26T21:16:10.077Z,30.37
2018-03-26T21:18:38.119Z,30.37
2018-03-26T21:21:06.149Z,31.63
2018-03-26T21:23:34.975Z,33.33
2018-03-26T21:26:03.797Z,32.80
2018-03-26T21:28:31.904Z,33.30
2018-03-26T21:30:59.937Z,31.93
2018-03-26T21:33:27.974Z,33.13
2018-03-26T21:35:56.029Z,33.20
2018-03-26T21:38:24.069Z,33.37
2018-03-26T21:40:52.124Z,33.37
2018-03-26T21:43:20.183Z,32.47
2018-03-26T21:45:48.260Z,32.73
2018-03-26T21:48:16.305Z,32.80
2018-03-26T21:50:44.362Z,31.90
2018-03-26T21:53:12.458Z,32.07
2018-03-26T21:55:40.504Z,34.40
2018-03-26T21:58:08.537Z,37.03
2018-03-26T22:00:36.593Z,36.23
2018-03-26T22:03:04.648Z,36.80
2018-03-26T22:05:32.689Z,36.30
2018-03-26T22:08:00.748Z,37.60
2018-03-26T22:10:28.806Z,36.93
2018-03-26T22:12:56.844Z,39.43
2018-03-26T22:15:24.898Z,37.03
2018-03-26T22:17:52.996Z,37.80
2018-03-26T22:20:21.065Z,38.77
2018-03-26T22:22:49.115Z,39.67
2018-03-26T22:25:17.917Z,39.80
2018-03-26T22:27:45.971Z,40.00
2018-03-26T22:30:14.036Z,39.90
2018-03-26T22:32:42.189Z,38.63
2018-03-26T22:35:10.992Z,39.07
2018-03-26T22:37:39.029Z,38.93
2018-03-26T22:40:07.087Z,39.33
2018-03-26T22:42:35.120Z,40.97
2018-03-26T22:45:03.936Z,40.77
2018-03-26T22:47:31.980Z,41.90
2018-03-26T22:50:00.037Z,41.93
2018-03-26T22:52:28.858Z,41.03
2018-03-26T22:54:56.898Z,42.57
2018-03-26T22:57:24.953Z,48.03
2018-03-26T22:59:53.763Z,45.30
2018-03-26T23:02:22.581Z,44.23
2018-03-26T23:04:50.617Z,44.53
2018-03-26T23:07:18.680Z,47.03
2018-03-26T23:09:46.716Z,46.53
2018-03-26T23:12:15.541Z,44.17
2018-03-26T23:14:43.595Z,45.83
2018-03-26T23:17:11.689Z,47.20
2018-03-26T23:19:39.793Z,46.53
2018-03-26T23:22:07.832Z,47.80
2018-03-26T23:24:35.896Z,49.00
2018-03-26T23:27:03.939Z,46.83
2018-03-26T23:29:32.866Z,47.10
2018-03-26T23:32:01.667Z,47.93
2018-03-26T23:34:29.714Z,46.13
2018-03-26T23:36:58.533Z,47.63
2018-03-26T23:39:26.573Z,47.43
2018-03-26T23:41:54.627Z,46.00
2018-03-26T23:44:22.688Z,44.87
2018-03-26T23:46:50.782Z,43.50
2018-03-26T23:49:18.844Z,45.13
2018-03-26T23:51:47.645Z,45.90
2018-03-26T23:54:16.467Z,45.93
2018-03-26T23:56:44.501Z,44.87
2018-03-26T23:59:12.560Z,44.37
